createdAt,value
2018-11-05T00:00:19.474Z,29.50
2018-11-05T00:02:49.762Z,28.23
2018-11-05T00:05:18.305Z,29.23
2018-11-05T00:07:46.769Z,29.93
2018-11-05T00:10:15.218Z,29.73
2018-11-05T00:12:43.795Z,28.80
2018-11-05T00:15:12.234Z,31.07
2018-11-05T00:17:40.690Z,29.37
2018-11-05T00:20:10.106Z,29.83
2018-11-05T00:22:38.541Z,30.77
2018-11-05T00:25:08.390Z,29.70
2018-11-05T00:27:36.850Z,29.43
2018-11-05T00:30:05.757Z,30.10
2018-11-05T00:32:34.201Z,29.67
2018-11-05T00:35:02.743Z,30.33
2018-11-05T00:37:31.192Z,26.07
2018-11-05T00:39:59.598Z,28.20
2018-11-05T00:42:28.069Z,29.23
2018-11-05T00:44:56.489Z,27.37
2018-11-05T00:47:24.905Z,28.13
2018-11-05T00:49:53.337Z,28.23
2018-11-05T00:52:21.762Z,27.97
2018-11-05T00:54:50.235Z,27.87
2018-11-05T00:57:18.672Z,29.73
2018-11-05T00:59:47.126Z,27.23
2018-11-05T01:02:16.051Z,27.03
2018-11-05T01:04:44.500Z,27.70
2018-11-05T01:07:12.934Z,27.97
2018-11-05T01:09:41.385Z,27.90
2018-11-05T01:12:09.826Z,28.57
2018-11-05T01:14:38.301Z,28.70
2018-11-05T01:17:06.742Z,26.77
2018-11-05T01:19:35.173Z,30.57
2018-11-05T01:22:03.630Z,29.87
2018-11-05T01:24:32.043Z,29.13
2018-11-05T01:27:00.498Z,31.07
2018-11-05T01:29:28.958Z,30.27
2018-11-05T01:31:57.410Z,31.57
2018-11-05T01:34:25.861Z,29.77
2018-11-05T01:36:54.340Z,31.53
2018-11-05T01:39:22.784Z,29.30
2018-11-05T01:41:51.258Z,31.67
2018-11-05T01:44:19.712Z,32.87
2018-11-05T01:46:48.174Z,30.93
2018-11-05T01:49:16.702Z,31.17
2018-11-05T01:51:45.115Z,30.07
2018-11-05T01:54:13.579Z,26.80
2018-11-05T01:56:42.025Z,27.23
2018-11-05T01:59:10.635Z,29.50
2018-11-05T02:01:39.093Z,29.30
2018-11-05T02:04:07.590Z,27.40
2018-11-05T02:06:36.023Z,27.27
2018-11-05T02:09:06.478Z,29.13
2018-11-05T02:11:34.910Z,26.77
2018-11-05T02:14:03.398Z,29.40
2018-11-05T02:16:31.837Z,27.83
2018-11-05T02:19:00.293Z,26.83
2018-11-05T02:21:28.727Z,27.37
2018-11-05T02:23:57.155Z,25.93
2018-11-05T02:26:25.629Z,27.30
2018-11-05T02:28:54.041Z,26.33
2018-11-05T02:31:22.493Z,25.93
2018-11-05T02:33:50.923Z,25.23
2018-11-05T02:36:19.510Z,24.77
2018-11-05T02:38:47.920Z,25.33
2018-11-05T02:41:16.379Z,25.83
2018-11-05T02:43:44.802Z,24.40
2018-11-05T02:46:13.210Z,26.20
2018-11-05T02:48:42.150Z,23.33
2018-11-05T02:51:10.569Z,23.47
2018-11-05T02:53:39.022Z,24.37
2018-11-05T02:56:08.014Z,23.00
2018-11-05T02:58:36.476Z,23.63
2018-11-05T03:01:04.937Z,22.30
2018-11-05T03:03:33.399Z,26.10
2018-11-05T03:06:01.863Z,24.10
2018-11-05T03:08:30.334Z,25.43
2018-11-05T03:10:58.778Z,21.37
2018-11-05T03:13:27.208Z,23.37
2018-11-05T03:15:55.746Z,25.70
2018-11-05T03:18:24.194Z,23.53
2018-11-05T03:20:52.616Z,26.30
2018-11-05T03:23:21.350Z,24.40
2018-11-05T03:25:49.779Z,26.50
2018-11-05T03:28:18.632Z,26.73
2018-11-05T03:30:47.102Z,27.13
2018-11-05T03:33:15.558Z,26.53
2018-11-05T03:35:44.157Z,28.00
2018-11-05T03:38:12.558Z,25.77
2018-11-05T03:40:41.003Z,26.67
2018-11-05T03:43:09.446Z,27.40
2018-11-05T03:45:37.889Z,23.63
2018-11-05T03:48:06.571Z,25.07
2018-11-05T03:50:35.190Z,25.07
2018-11-05T03:53:03.645Z,24.93
2018-11-05T03:55:32.556Z,25.07
2018-11-05T03:58:00.974Z,26.43
2018-11-05T04:00:29.443Z,25.10
2018-11-05T04:02:57.861Z,25.30
2018-11-05T04:05:26.296Z,24.30
2018-11-05T04:07:54.739Z,25.17
2018-11-05T04:10:23.182Z,25.93
2018-11-05T04:12:51.616Z,24.80
2018-11-05T04:15:20.131Z,23.93
2018-11-05T04:17:48.528Z,27.07
2018-11-05T04:20:16.982Z,25.33
2018-11-05T04:22:45.578Z,25.40
2018-11-05T04:25:14.070Z,23.47
2018-11-05T04:27:42.539Z,23.27
2018-11-05T04:30:13.223Z,23.27
2018-11-05T04:32:42.032Z,22.13
2018-11-05T04:35:12.114Z,22.10
2018-11-05T04:37:40.582Z,22.50
2018-11-05T04:40:09.770Z,20.87
2018-11-05T04:42:38.201Z,21.43
2018-11-05T04:45:07.751Z,23.03
2018-11-05T04:47:36.183Z,22.40
2018-11-05T04:50:05.806Z,22.53
2018-11-05T04:52:34.213Z,21.73
2018-11-05T04:55:02.696Z,19.90
2018-11-05T04:57:31.286Z,21.70
2018-11-05T05:00:04.031Z,20.90
2018-11-05T05:02:32.501Z,20.87
2018-11-05T05:05:00.909Z,22.23
2018-11-05T05:07:29.388Z,21.00
2018-11-05T05:09:57.797Z,20.83
2018-11-05T05:12:26.221Z,21.10
2018-11-05T05:14:54.645Z,21.20
2018-11-05T05:17:23.122Z,21.83
2018-11-05T05:19:51.541Z,22.40
2018-11-05T05:22:19.982Z,21.20
2018-11-05T05:24:48.397Z,21.83
2018-11-05T05:27:16.834Z,24.20
2018-11-05T05:29:45.290Z,23.30
2018-11-05T05:32:13.702Z,25.20
2018-11-05T05:34:42.122Z,21.73
2018-11-05T05:37:10.595Z,23.40
2018-11-05T05:39:39.026Z,24.17
2018-11-05T05:42:07.892Z,23.30
2018-11-05T05:44:36.332Z,23.70
2018-11-05T05:47:05.153Z,24.47
2018-11-05T05:49:33.589Z,24.20
2018-11-05T05:52:02.043Z,24.10
2018-11-05T05:54:30.461Z,23.30
2018-11-05T05:56:58.876Z,22.17
2018-11-05T05:59:27.341Z,21.57
2018-11-05T06:01:55.943Z,20.73
2018-11-05T06:04:24.398Z,21.13
2018-11-05T06:09:27.594Z,22.40
2018-11-05T06:11:56.037Z,21.47
2018-11-05T06:14:24.441Z,21.03
2018-11-05T06:16:52.924Z,21.50
2018-11-05T06:19:21.333Z,20.63
2018-11-05T06:21:49.861Z,21.97
2018-11-05T06:24:18.228Z,20.67
2018-11-05T06:26:46.675Z,21.73
2018-11-05T06:29:15.076Z,19.03
2018-11-05T06:31:43.532Z,19.97
2018-11-05T06:34:12.084Z,21.43
2018-11-05T06:36:40.514Z,20.63
2018-11-05T06:39:11.535Z,20.73
2018-11-05T06:41:40.989Z,20.97
2018-11-05T06:44:09.400Z,20.73
2018-11-05T06:46:37.797Z,19.03
2018-11-05T06:49:06.545Z,18.70
2018-11-05T06:51:34.981Z,19.27
2018-11-05T06:54:04.387Z,18.80
2018-11-05T06:56:33.151Z,18.53
2018-11-05T06:59:01.598Z,18.57
2018-11-05T07:01:31.016Z,18.03
2018-11-05T07:03:59.536Z,16.83
2018-11-05T07:06:28.189Z,16.33
2018-11-05T07:08:56.610Z,16.00
2018-11-05T07:11:25.092Z,16.70
2018-11-05T07:13:53.491Z,16.50
2018-11-05T07:16:22.096Z,17.30
2018-11-05T07:18:50.747Z,17.10
2018-11-05T07:21:19.264Z,16.73
2018-11-05T07:23:47.709Z,17.23
2018-11-05T07:26:16.109Z,17.40
2018-11-05T07:28:44.656Z,17.20
2018-11-05T07:31:13.066Z,17.60
2018-11-05T07:33:41.619Z,18.33
2018-11-05T07:36:11.117Z,19.53
2018-11-05T07:38:39.561Z,18.43
2018-11-05T07:41:07.980Z,18.77
2018-11-05T07:43:37.846Z,19.67
2018-11-05T07:46:09.298Z,18.53
2018-11-05T07:48:37.806Z,19.40
2018-11-05T07:51:06.256Z,18.57
2018-11-05T07:53:34.676Z,18.87
2018-11-05T07:56:03.099Z,17.20
2018-11-05T07:58:31.547Z,17.10
2018-11-05T08:01:00.042Z,16.40
2018-11-05T08:03:28.657Z,17.00
2018-11-05T08:05:57.838Z,16.07
2018-11-05T08:08:26.350Z,15.70
2018-11-05T08:10:54.725Z,13.70
2018-11-05T08:13:23.163Z,13.50
2018-11-05T08:15:51.597Z,14.17
2018-11-05T08:18:20.005Z,14.03
2018-11-05T08:20:48.449Z,13.60
2018-11-05T08:23:16.870Z,13.13
2018-11-05T08:25:45.277Z,12.73
2018-11-05T08:28:14.519Z,12.97
2018-11-05T08:30:42.946Z,12.00
2018-11-05T08:33:11.427Z,12.40
2018-11-05T08:35:39.857Z,11.33
2018-11-05T08:38:08.273Z,12.20
2018-11-05T08:40:36.713Z,12.07
2018-11-05T08:43:05.760Z,11.37
2018-11-05T08:45:34.201Z,11.87
2018-11-05T08:48:02.671Z,11.67
2018-11-05T08:50:31.173Z,11.13
2018-11-05T08:52:59.527Z,10.10
2018-11-05T08:55:28.314Z,10.77
2018-11-05T08:57:56.730Z,9.93
2018-11-05T09:00:30.676Z,10.50
2018-11-05T09:02:59.077Z,9.57
2018-11-05T09:05:27.516Z,9.83
2018-11-05T09:07:56.265Z,9.27
2018-11-05T09:10:24.851Z,9.40
2018-11-05T09:12:53.156Z,9.60
2018-11-05T09:15:22.342Z,9.03
2018-11-05T09:17:51.013Z,8.90
2018-11-05T09:20:20.025Z,9.17
2018-11-05T09:22:49.922Z,7.97
2018-11-05T09:25:18.514Z,9.00
2018-11-05T09:27:46.951Z,8.77
2018-11-05T09:30:17.828Z,8.83
2018-11-05T09:32:46.804Z,8.47
2018-11-05T09:35:15.570Z,9.67
2018-11-05T09:37:44.097Z,8.80
2018-11-05T09:40:14.960Z,7.90
2018-11-05T09:42:44.205Z,8.27
2018-11-05T09:45:15.494Z,8.67
2018-11-05T09:47:44.553Z,8.37
2018-11-05T09:50:13.354Z,9.20
2018-11-05T09:52:41.777Z,9.30
2018-11-05T09:55:11.542Z,7.93
2018-11-05T09:57:40.210Z,8.23
2018-11-05T10:00:15.088Z,7.90
2018-11-05T10:02:48.839Z,8.33
2018-11-05T10:05:17.558Z,8.07
2018-11-05T10:07:46.251Z,8.13
2018-11-05T10:10:15.565Z,8.60
2018-11-05T10:12:44.498Z,7.77
2018-11-05T10:15:13.897Z,7.33
2018-11-05T10:17:42.336Z,6.90
2018-11-05T10:20:13.658Z,8.20
2018-11-05T10:22:42.313Z,7.10
2018-11-05T10:25:11.563Z,7.53
2018-11-05T10:27:39.999Z,7.77
2018-11-05T10:30:13.997Z,7.90
2018-11-05T10:32:42.745Z,8.27
2018-11-05T10:35:11.574Z,7.37
2018-11-05T10:37:40.380Z,7.97
2018-11-05T10:40:13.592Z,8.13
2018-11-05T10:42:42.661Z,8.47
2018-11-05T10:45:12.509Z,8.27
2018-11-05T10:47:41.050Z,8.10
2018-11-05T10:50:10.710Z,7.10
2018-11-05T10:52:39.190Z,7.17
2018-11-05T10:55:07.973Z,6.50
2018-11-05T10:57:36.424Z,6.43
2018-11-05T11:00:07.823Z,6.50
2018-11-05T11:02:40.690Z,6.20
2018-11-05T11:05:09.151Z,6.50
2018-11-05T11:07:37.610Z,6.87
2018-11-05T11:10:06.116Z,6.70
2018-11-05T11:12:34.551Z,5.80
2018-11-05T11:15:03.028Z,5.87
2018-11-05T11:17:31.504Z,5.30
2018-11-05T11:19:59.915Z,5.70
2018-11-05T11:22:28.381Z,4.93
2018-11-05T11:24:56.846Z,5.13
2018-11-05T11:27:25.298Z,5.13
2018-11-05T11:29:53.750Z,6.03
2018-11-05T11:32:22.165Z,5.47
2018-11-05T11:34:50.614Z,6.17
2018-11-05T11:37:19.092Z,6.90
2018-11-05T11:39:47.499Z,6.57
2018-11-05T11:42:15.951Z,7.43
2018-11-05T11:44:44.525Z,7.60
2018-11-05T11:47:12.942Z,8.00
2018-11-05T11:49:41.671Z,7.80
2018-11-05T11:52:10.109Z,7.00
2018-11-05T11:54:38.861Z,6.17
2018-11-05T11:57:07.537Z,6.80
2018-11-05T11:59:35.992Z,6.47
2018-11-05T12:02:10.003Z,7.10
2018-11-05T12:04:38.449Z,7.13
2018-11-05T12:07:07.018Z,7.07
2018-11-05T12:09:35.469Z,6.90
2018-11-05T12:12:11.763Z,6.83
2018-11-05T12:14:40.291Z,7.03
2018-11-05T12:17:08.733Z,6.23
2018-11-05T12:19:37.153Z,6.83
2018-11-05T12:22:05.677Z,5.57
2018-11-05T12:24:34.142Z,6.33
2018-11-05T12:27:02.651Z,5.70
2018-11-05T12:29:31.094Z,6.33
2018-11-05T12:31:59.585Z,6.00
2018-11-05T12:34:28.079Z,6.23
2018-11-05T12:36:56.570Z,6.10
2018-11-05T12:39:25.006Z,6.83
2018-11-05T12:41:54.111Z,7.30
2018-11-05T12:44:22.563Z,6.60
2018-11-05T12:46:51.012Z,6.83
2018-11-05T12:49:19.449Z,6.50
2018-11-05T12:51:47.917Z,7.37
2018-11-05T12:54:16.388Z,7.20
2018-11-05T12:56:44.838Z,7.33
2018-11-05T12:59:13.285Z,6.63
2018-11-05T13:01:41.762Z,7.47
2018-11-05T13:04:10.278Z,7.30
2018-11-05T13:06:38.874Z,6.90
2018-11-05T13:09:08.914Z,6.83
2018-11-05T13:11:37.362Z,7.23
2018-11-05T13:14:05.901Z,7.40
2018-11-05T13:16:34.353Z,6.80
2018-11-05T13:19:02.818Z,7.47
2018-11-05T13:21:31.287Z,7.43
2018-11-05T13:23:59.745Z,7.57
2018-11-05T13:26:28.177Z,6.90
2018-11-05T13:28:56.649Z,7.07
2018-11-05T13:31:25.065Z,6.73
2018-11-05T13:33:53.527Z,6.43
2018-11-05T13:36:21.974Z,6.57
2018-11-05T13:38:50.455Z,7.23
2018-11-05T13:41:18.893Z,7.67
2018-11-05T13:43:47.383Z,6.80
2018-11-05T13:46:16.336Z,7.30
2018-11-05T13:48:44.729Z,7.87
2018-11-05T13:51:12.716Z,7.57
2018-11-05T13:53:41.186Z,7.70
2018-11-05T13:56:09.708Z,7.93
2018-11-05T13:58:38.199Z,8.13
2018-11-05T14:01:07.162Z,7.43
2018-11-05T14:03:35.635Z,8.20
2018-11-05T14:06:04.362Z,7.07
2018-11-05T14:08:32.942Z,8.30
2018-11-05T14:11:01.526Z,8.27
2018-11-05T14:13:29.965Z,9.20
2018-11-05T14:15:58.466Z,8.57
2018-11-05T14:18:27.048Z,9.30
2018-11-05T14:20:55.488Z,9.20
2018-11-05T14:23:23.897Z,9.07
2018-11-05T14:25:52.368Z,9.80
2018-11-05T14:28:21.107Z,10.40
2018-11-05T14:30:49.324Z,9.90
2018-11-05T14:33:17.782Z,10.17
2018-11-05T14:35:46.236Z,9.97
2018-11-05T14:38:14.696Z,9.43
2018-11-05T14:40:43.181Z,11.07
2018-11-05T14:43:11.800Z,10.57
2018-11-05T14:45:40.103Z,10.53
2018-11-05T14:48:08.556Z,10.10
2018-11-05T14:50:37.101Z,10.73
2018-11-05T14:53:05.513Z,10.67
2018-11-05T14:55:33.974Z,10.77
2018-11-05T14:58:02.401Z,10.47
2018-11-05T15:00:30.876Z,11.10
2018-11-05T15:02:59.404Z,10.83
2018-11-05T15:05:27.824Z,10.73
2018-11-05T15:07:56.323Z,11.83
2018-11-05T15:10:25.973Z,13.37
2018-11-05T15:12:54.435Z,11.10
2018-11-05T15:15:23.296Z,11.97
2018-11-05T15:17:51.831Z,11.70
2018-11-05T15:20:22.308Z,10.77
2018-11-05T15:22:50.661Z,10.97
2018-11-05T15:25:19.994Z,11.47
2018-11-05T15:27:48.468Z,11.20
2018-11-05T15:30:19.194Z,11.77
2018-11-05T15:32:47.735Z,12.17
2018-11-05T15:35:16.584Z,12.53
2018-11-05T15:37:45.325Z,11.60
2018-11-05T15:40:15.134Z,12.13
2018-11-05T15:42:43.653Z,12.37
2018-11-05T15:45:13.606Z,12.70
2018-11-05T15:47:43.879Z,12.07
2018-11-05T15:50:14.526Z,11.57
2018-11-05T15:52:43.698Z,12.77
2018-11-05T15:55:12.826Z,12.63
2018-11-05T15:57:41.746Z,13.00
2018-11-05T16:00:17.768Z,13.47
2018-11-05T16:02:48.402Z,13.93
2018-11-05T16:05:18.017Z,15.07
2018-11-05T16:07:46.688Z,12.67
2018-11-05T16:10:15.257Z,14.17
2018-11-05T16:12:43.773Z,14.73
2018-11-05T16:15:16.050Z,14.80
2018-11-05T16:17:44.544Z,14.90
2018-11-05T16:20:14.741Z,13.93
2018-11-05T16:22:43.623Z,14.73
2018-11-05T16:25:12.173Z,15.53
2018-11-05T16:27:40.818Z,14.43
2018-11-05T16:30:12.135Z,14.57
2018-11-05T16:32:41.066Z,15.43
2018-11-05T16:35:09.685Z,15.90
2018-11-05T16:37:38.102Z,16.67
2018-11-05T16:40:09.736Z,16.40
2018-11-05T16:42:38.553Z,16.70
2018-11-05T16:45:08.354Z,18.20
2018-11-05T16:47:37.530Z,18.27
2018-11-05T16:50:11.822Z,16.63
2018-11-05T16:52:40.311Z,16.10
2018-11-05T16:55:10.373Z,16.40
2018-11-05T16:57:38.965Z,14.03
2018-11-05T17:00:07.816Z,13.60
2018-11-05T17:02:36.467Z,13.33
2018-11-05T17:05:05.279Z,14.83
2018-11-05T17:07:33.776Z,14.97
2018-11-05T17:10:03.031Z,13.80
2018-11-05T17:12:31.575Z,14.03
2018-11-05T17:15:00.167Z,14.17
2018-11-05T17:17:29.077Z,13.77
2018-11-05T17:19:57.561Z,13.10
2018-11-05T17:22:26.193Z,12.97
2018-11-05T17:24:54.902Z,12.87
2018-11-05T17:27:23.426Z,12.40
2018-11-05T17:29:51.966Z,13.07
2018-11-05T17:32:20.699Z,13.47
2018-11-05T17:34:49.202Z,11.93
2018-11-05T17:37:18.517Z,13.10
2018-11-05T17:39:47.027Z,13.00
2018-11-05T17:42:15.919Z,12.17
2018-11-05T17:44:44.463Z,12.87
2018-11-05T17:47:13.286Z,12.60
2018-11-05T17:49:41.878Z,12.77
2018-11-05T17:52:10.433Z,12.83
2018-11-05T17:54:39.010Z,14.27
2018-11-05T17:57:07.673Z,14.53
2018-11-05T17:59:36.098Z,14.27
2018-11-05T18:02:04.884Z,13.80
2018-11-05T18:04:33.456Z,14.17
2018-11-05T18:07:22.123Z,14.53
2018-11-05T18:09:50.978Z,15.30
2018-11-05T18:12:19.491Z,13.27
2018-11-05T18:14:48.181Z,14.63
2018-11-05T18:17:16.658Z,12.37
2018-11-05T18:19:45.206Z,13.63
2018-11-05T18:22:13.773Z,14.70
2018-11-05T18:24:42.790Z,14.47
2018-11-05T18:27:11.268Z,15.73
2018-11-05T18:29:39.900Z,15.83
2018-11-05T18:32:08.804Z,15.43
2018-11-05T18:37:14.359Z,16.20
2018-11-05T18:39:42.799Z,16.67
2018-11-05T18:42:11.401Z,18.70
2018-11-05T18:44:40.416Z,18.00
2018-11-05T18:47:09.666Z,16.57
2018-11-05T18:49:38.537Z,16.23
2018-11-05T18:52:08.691Z,15.17
2018-11-05T18:54:37.915Z,16.30
2018-11-05T18:57:06.780Z,15.23
2018-11-05T18:59:35.259Z,16.07
2018-11-05T19:02:04.204Z,14.57
2018-11-05T19:04:32.726Z,15.03
2018-11-05T19:07:01.192Z,16.70
2018-11-05T19:09:29.830Z,16.33
2018-11-05T19:11:58.861Z,15.73
2018-11-05T19:14:27.362Z,13.97
2018-11-05T19:16:55.983Z,13.80
2018-11-05T19:19:24.561Z,14.50
2018-11-05T19:21:53.072Z,14.80
2018-11-05T19:24:21.721Z,13.53
2018-11-05T19:26:50.720Z,14.47
2018-11-05T19:29:19.192Z,14.43
2018-11-05T19:31:47.645Z,14.17
2018-11-05T19:34:16.153Z,14.73
2018-11-05T19:36:45.279Z,15.43
2018-11-05T19:39:14.346Z,14.07
2018-11-05T19:41:42.920Z,15.23
2018-11-05T19:44:12.018Z,15.20
2018-11-05T19:46:40.522Z,15.50
2018-11-05T19:49:09.208Z,15.80
2018-11-05T19:51:37.756Z,16.53
2018-11-05T19:54:06.307Z,16.03
2018-11-05T19:56:34.896Z,16.23
2018-11-05T19:59:03.408Z,15.30
2018-11-05T20:01:31.962Z,15.43
2018-11-05T20:04:00.458Z,15.00
2018-11-05T20:06:29.797Z,16.17
2018-11-05T20:08:58.455Z,15.47
2018-11-05T20:11:27.004Z,15.97
2018-11-05T20:13:55.622Z,14.87
2018-11-05T20:16:24.171Z,15.03
2018-11-05T20:18:52.708Z,15.33
2018-11-05T20:21:21.166Z,15.00
2018-11-05T20:23:49.654Z,15.73
2018-11-05T20:26:18.634Z,14.83
2018-11-05T20:28:47.124Z,16.17
2018-11-05T20:31:15.664Z,16.97
2018-11-05T20:33:44.303Z,16.93
2018-11-05T20:36:12.592Z,16.60
2018-11-05T20:38:41.018Z,15.77
2018-11-05T20:41:09.594Z,14.40
2018-11-05T20:43:38.038Z,14.30
2018-11-05T20:46:06.547Z,14.10
2018-11-05T20:48:34.990Z,14.57
2018-11-05T20:51:03.455Z,14.97
2018-11-05T20:53:32.021Z,14.23
2018-11-05T20:56:00.435Z,14.77
2018-11-05T20:58:28.889Z,14.03
2018-11-05T21:00:57.396Z,14.50
2018-11-05T21:03:25.830Z,14.27
2018-11-05T21:05:54.274Z,14.03
2018-11-05T21:08:22.754Z,14.50
2018-11-05T21:10:51.203Z,15.27
2018-11-05T21:13:19.661Z,15.27
2018-11-05T21:15:48.268Z,14.87
2018-11-05T21:18:16.766Z,14.73
2018-11-05T21:20:45.209Z,14.63
2018-11-05T21:23:13.735Z,14.50
2018-11-05T21:25:42.167Z,14.33
2018-11-05T21:28:10.618Z,15.43
2018-11-05T21:30:39.097Z,14.30
2018-11-05T21:33:10.395Z,15.00
2018-11-05T21:35:38.840Z,14.03
2018-11-05T21:38:07.404Z,14.67
2018-11-05T21:40:35.888Z,16.50
2018-11-05T21:43:04.467Z,15.10
2018-11-05T21:45:32.962Z,14.80
2018-11-05T21:48:01.399Z,16.33
2018-11-05T21:50:30.315Z,14.87
2018-11-05T21:52:58.837Z,16.60
2018-11-05T21:55:27.310Z,14.83
2018-11-05T21:57:55.755Z,14.30
2018-11-05T22:00:25.361Z,14.40
2018-11-05T22:03:02.205Z,14.67
2018-11-05T22:05:30.683Z,14.77
2018-11-05T22:07:59.151Z,15.23
2018-11-05T22:10:27.605Z,14.30
2018-11-05T22:12:56.058Z,15.13
2018-11-05T22:15:24.500Z,14.10
2018-11-05T22:17:52.961Z,15.80
2018-11-05T22:20:21.393Z,15.60
2018-11-05T22:22:49.851Z,15.40
2018-11-05T22:25:18.336Z,15.03
2018-11-05T22:27:46.789Z,14.00
2018-11-05T22:30:18.104Z,14.63
2018-11-05T22:32:46.581Z,14.90
2018-11-05T22:35:15.005Z,14.67
2018-11-05T22:37:43.447Z,15.23
2018-11-05T22:40:13.309Z,15.00
2018-11-05T22:42:42.103Z,15.13
2018-11-05T22:45:12.110Z,14.30
2018-11-05T22:47:40.913Z,15.63
2018-11-05T22:50:09.668Z,16.13
2018-11-05T22:52:38.681Z,15.83
2018-11-05T22:55:07.774Z,14.23
2018-11-05T22:57:36.287Z,14.67
2018-11-05T23:00:08.220Z,13.80
2018-11-05T23:02:38.785Z,14.57
2018-11-05T23:05:07.257Z,12.03
2018-11-05T23:07:35.750Z,12.13
2018-11-05T23:10:04.308Z,10.80
2018-11-05T23:12:32.923Z,9.47
2018-11-05T23:15:01.479Z,8.70
2018-11-05T23:17:30.590Z,9.37
2018-11-05T23:19:59.353Z,7.83
2018-11-05T23:22:27.782Z,8.00
2018-11-05T23:24:56.238Z,7.63
2018-11-05T23:27:24.665Z,7.17
2018-11-05T23:29:53.409Z,6.53
2018-11-05T23:32:21.847Z,6.10
2018-11-05T23:34:50.282Z,5.47
2018-11-05T23:37:18.733Z,5.17
2018-11-05T23:39:47.161Z,5.80
2018-11-05T23:42:15.610Z,4.83
2018-11-05T23:44:44.655Z,6.07
2018-11-05T23:47:13.088Z,5.53
2018-11-05T23:49:41.544Z,6.33
2018-11-05T23:52:10.037Z,5.73
2018-11-05T23:54:38.493Z,6.10
2018-11-05T23:57:07.006Z,5.73
2018-11-05T23:59:35.466Z,5.27
